createdAt,value
2022-07-26T00:01:33.633Z,98834.52
2022-07-26T00:04:35.936Z,98839.62
2022-07-26T00:07:39.324Z,98837.05
2022-07-26T00:10:44.095Z,98831.42
2022-07-26T00:13:46.083Z,98824.27
2022-07-26T00:16:48.362Z,98827.78
2022-07-26T00:19:50.186Z,98819.39
2022-07-26T00:22:51.960Z,98809.08
2022-07-26T00:25:53.678Z,98808.59
2022-07-26T00:28:55.531Z,98806.42
2022-07-26T00:31:57.411Z,98801.11
2022-07-26T00:34:59.414Z,98793.00
2022-07-26T00:38:01.210Z,98785.35
2022-07-26T00:41:03.078Z,98782.75
2022-07-26T00:44:05.128Z,98787.64
2022-07-26T00:47:07.182Z,98785.09
2022-07-26T00:50:12.422Z,98789.37
2022-07-26T00:53:14.402Z,98789.65
2022-07-26T00:56:17.381Z,98789.51
2022-07-26T00:59:19.212Z,98782.08
2022-07-26T01:02:20.997Z,98780.27
2022-07-26T01:05:23.643Z,98784.86
2022-07-26T01:08:25.547Z,98784.75
2022-07-26T01:11:27.399Z,98784.73
2022-07-26T01:14:29.291Z,98783.16
2022-07-26T01:17:31.045Z,98778.51
2022-07-26T01:20:36.361Z,98777.88
2022-07-26T01:23:38.751Z,98774.70
2022-07-26T01:26:40.599Z,98771.13
2022-07-26T01:29:42.435Z,98770.64
2022-07-26T01:32:44.292Z,98771.40
2022-07-26T01:35:46.041Z,98766.34
2022-07-26T01:38:48.034Z,98762.09
2022-07-26T01:41:49.826Z,98754.23
2022-07-26T01:44:51.558Z,98747.52
2022-07-26T01:47:53.376Z,98751.12
2022-07-26T01:50:55.241Z,98748.61
2022-07-26T01:53:57.245Z,98744.01
2022-07-26T01:57:10.514Z,98752.03
2022-07-26T02:00:13.665Z,98749.33
2022-07-26T02:03:15.728Z,98742.27
2022-07-26T02:06:17.502Z,98735.00
2022-07-26T02:09:19.684Z,98735.89
2022-07-26T02:12:23.026Z,98727.91
2022-07-26T02:15:24.975Z,98719.65
2022-07-26T02:18:28.693Z,98713.63
2022-07-26T02:21:30.492Z,98715.98
2022-07-26T02:24:33.073Z,98711.20
2022-07-26T02:27:34.953Z,98714.38
2022-07-26T02:30:36.898Z,98708.48
2022-07-26T02:33:38.610Z,98702.48
2022-07-26T02:36:40.285Z,98701.11
2022-07-26T02:39:42.253Z,98707.79
2022-07-26T02:42:44.023Z,98717.12
2022-07-26T02:45:45.815Z,98719.48
2022-07-26T02:49:04.149Z,98714.12
2022-07-26T02:52:05.933Z,98711.64
2022-07-26T02:55:08.215Z,98714.23
2022-07-26T02:58:10.001Z,98707.30
2022-07-26T03:01:11.988Z,98701.69
2022-07-26T03:04:15.452Z,98696.58
2022-07-26T03:07:17.186Z,98698.33
2022-07-26T03:10:19.111Z,98699.05
2022-07-26T03:13:20.941Z,98695.09
2022-07-26T03:16:27.348Z,98693.46
2022-07-26T03:19:31.114Z,98682.54
2022-07-26T03:22:32.923Z,98684.80
2022-07-26T03:25:37.670Z,98684.76
2022-07-26T03:28:42.272Z,98678.84
2022-07-26T03:31:44.487Z,98679.94
2022-07-26T03:34:46.435Z,98678.25
2022-07-26T03:37:48.092Z,98678.85
2022-07-26T03:40:49.892Z,98672.66
2022-07-26T03:43:51.637Z,98665.02
2022-07-26T03:46:53.477Z,98662.82
2022-07-26T03:49:55.247Z,98660.11
2022-07-26T03:52:57.023Z,98651.11
2022-07-26T03:56:17.362Z,98650.94
2022-07-26T03:59:19.297Z,98651.44
2022-07-26T04:02:21.342Z,98642.46
2022-07-26T04:05:23.944Z,98647.70
2022-07-26T04:08:28.343Z,98647.87
2022-07-26T04:11:30.422Z,98643.59
2022-07-26T04:14:32.138Z,98642.08
2022-07-26T04:17:40.946Z,98643.50
2022-07-26T04:20:43.276Z,98639.96
2022-07-26T04:23:50.754Z,98638.33
2022-07-26T04:26:53.087Z,98638.00
2022-07-26T04:29:54.937Z,98638.36
2022-07-26T04:32:56.780Z,98638.42
2022-07-26T04:35:58.978Z,98637.56
2022-07-26T04:39:00.627Z,98639.16
2022-07-26T04:42:02.326Z,98643.30
2022-07-26T04:45:08.303Z,98643.66
2022-07-26T04:48:10.522Z,98643.98
2022-07-26T04:51:12.286Z,98644.36
2022-07-26T04:54:15.670Z,98644.67
2022-07-26T04:57:17.563Z,98644.45
2022-07-26T05:00:24.381Z,98647.69
2022-07-26T05:03:26.361Z,98649.38
2022-07-26T05:06:28.075Z,98640.70
2022-07-26T05:09:30.071Z,98639.92
2022-07-26T05:12:31.925Z,98641.83
2022-07-26T05:15:36.341Z,98642.59
2022-07-26T05:18:48.847Z,98643.08
2022-07-26T05:21:51.885Z,98642.73
2022-07-26T05:24:53.516Z,98636.42
2022-07-26T05:27:55.282Z,98645.46
2022-07-26T05:30:57.091Z,98643.46
2022-07-26T05:33:58.852Z,98645.84
2022-07-26T05:37:00.673Z,98648.64
2022-07-26T05:40:04.544Z,98643.30
2022-07-26T05:43:06.405Z,98642.94
2022-07-26T05:46:09.845Z,98642.52
2022-07-26T05:49:11.923Z,98639.42
2022-07-26T05:52:13.742Z,98637.11
2022-07-26T05:55:15.520Z,98635.27
2022-07-26T05:58:17.338Z,98635.88
2022-07-26T06:01:19.704Z,98636.45
2022-07-26T06:04:22.475Z,98631.61
2022-07-26T06:07:26.942Z,98627.17
2022-07-26T06:10:28.768Z,98628.06
2022-07-26T06:13:30.665Z,98626.02
2022-07-26T06:16:32.525Z,98630.89
2022-07-26T06:19:35.026Z,98630.79
2022-07-26T06:22:36.873Z,98632.45
2022-07-26T06:25:38.863Z,98633.77
2022-07-26T06:28:41.338Z,98636.98
2022-07-26T06:31:43.202Z,98647.53
2022-07-26T06:34:44.988Z,98657.27
2022-07-26T06:37:49.334Z,98665.04
2022-07-26T06:40:51.188Z,98671.92
2022-07-26T06:43:54.525Z,98673.21
2022-07-26T06:46:56.548Z,98676.52
2022-07-26T06:50:00.066Z,98685.48
2022-07-26T06:53:02.045Z,98683.66
2022-07-26T06:56:04.185Z,98683.27
2022-07-26T06:59:09.407Z,98684.17
2022-07-26T07:02:11.400Z,98682.27
2022-07-26T07:05:13.407Z,98688.83
2022-07-26T07:08:15.851Z,98683.84
2022-07-26T07:11:19.740Z,98684.85
2022-07-26T07:14:22.234Z,98684.05
2022-07-26T07:17:23.998Z,98682.26
2022-07-26T07:20:26.699Z,98684.52
2022-07-26T07:23:28.654Z,98685.73
2022-07-26T07:26:30.523Z,98692.25
2022-07-26T07:29:32.666Z,98691.84
2022-07-26T07:32:34.677Z,98692.02
2022-07-26T07:35:37.012Z,98693.91
2022-07-26T07:38:38.743Z,98694.54
2022-07-26T07:41:48.830Z,98690.50
2022-07-26T07:44:50.789Z,98685.90
2022-07-26T07:47:52.482Z,98693.73
2022-07-26T07:50:54.618Z,98697.69
2022-07-26T07:53:57.948Z,98688.19
2022-07-26T07:57:01.099Z,98696.38
2022-07-26T08:00:05.108Z,98702.54
2022-07-26T08:03:07.090Z,98703.49
2022-07-26T08:06:10.667Z,98703.17
2022-07-26T08:09:13.309Z,98703.65
2022-07-26T08:12:15.563Z,98712.22
2022-07-26T08:15:17.747Z,98717.98
2022-07-26T08:18:22.898Z,98727.14
2022-07-26T08:21:28.302Z,98725.33
2022-07-26T08:24:31.217Z,98732.61
2022-07-26T08:27:40.438Z,98735.79
2022-07-26T08:30:43.125Z,98745.70
2022-07-26T08:33:45.748Z,98752.89
2022-07-26T08:37:14.198Z,98755.70
2022-07-26T08:40:10.396Z,98758.35
2022-07-26T08:43:12.326Z,98764.46
2022-07-26T08:46:14.329Z,98770.04
2022-07-26T08:49:16.417Z,98776.36
2022-07-26T08:52:18.211Z,98780.44
2022-07-26T08:55:21.002Z,98786.40
2022-07-26T08:58:22.748Z,98785.63
2022-07-26T09:01:24.670Z,98797.55
2022-07-26T09:04:32.785Z,98803.83
2022-07-26T09:07:36.098Z,98811.88
2022-07-26T09:10:39.350Z,98823.61
2022-07-26T09:13:51.041Z,98821.57
2022-07-26T09:16:58.689Z,98832.96
2022-07-26T09:20:24.527Z,98833.93
2022-07-26T09:23:40.008Z,98841.64
2022-07-26T09:26:55.397Z,98845.48
2022-07-26T09:30:05.962Z,98852.65
2022-07-26T09:33:11.254Z,98867.04
2022-07-26T09:36:13.585Z,98861.79
2022-07-26T09:39:15.632Z,98863.61
2022-07-26T09:42:28.474Z,98865.41
2022-07-26T09:45:33.810Z,98873.48
2022-07-26T09:49:09.858Z,98873.91
2022-07-26T09:52:00.439Z,98876.55
2022-07-26T09:55:06.358Z,98878.89
2022-07-26T09:58:08.208Z,98881.98
2022-07-26T10:01:09.995Z,98884.91
2022-07-26T10:04:13.342Z,98889.56
2022-07-26T10:07:17.265Z,98900.63
2022-07-26T10:10:26.064Z,98903.52
2022-07-26T10:13:28.573Z,98904.52
2022-07-26T10:16:33.198Z,98909.77
2022-07-26T10:19:45.641Z,98915.80
2022-07-26T10:22:50.758Z,98920.48
2022-07-26T10:25:53.032Z,98926.42
2022-07-26T10:28:55.379Z,98930.60
2022-07-26T10:32:00.468Z,98937.14
2022-07-26T10:35:34.575Z,98948.98
2022-07-26T10:38:37.848Z,98946.55
2022-07-26T10:41:44.095Z,98947.74
2022-07-26T10:44:45.888Z,98946.33
2022-07-26T10:48:14.718Z,98950.06
2022-07-26T10:51:27.781Z,98945.48
2022-07-26T10:54:29.839Z,98944.48
2022-07-26T10:57:34.663Z,98940.90
2022-07-26T11:00:36.559Z,98934.29
2022-07-26T11:03:40.559Z,98932.95
2022-07-26T11:06:42.623Z,98938.17
2022-07-26T11:09:44.541Z,98937.81
2022-07-26T11:12:46.292Z,98937.12
2022-07-26T11:15:50.906Z,98934.73
2022-07-26T11:18:52.795Z,98935.07
2022-07-26T11:22:03.635Z,98942.81
2022-07-26T11:25:05.978Z,98939.03
2022-07-26T11:28:08.380Z,98946.60
2022-07-26T11:31:11.582Z,98945.95
2022-07-26T11:34:22.094Z,98950.98
2022-07-26T11:37:24.104Z,98956.08
2022-07-26T11:40:46.120Z,98958.25
2022-07-26T11:43:49.427Z,98961.91
2022-07-26T11:46:51.738Z,98966.77
2022-07-26T11:50:13.951Z,98964.95
2022-07-26T11:53:23.249Z,98964.11
2022-07-26T11:56:25.948Z,98961.94
2022-07-26T11:59:30.495Z,98957.80
2022-07-26T12:02:32.377Z,98964.10
2022-07-26T12:05:34.859Z,98962.73
2022-07-26T12:08:40.375Z,98963.72
2022-07-26T12:11:44.468Z,98965.90
2022-07-26T12:15:05.729Z,98969.09
2022-07-26T12:18:08.931Z,98976.86
2022-07-26T12:21:11.355Z,98978.61
2022-07-26T12:24:45.060Z,98984.36
2022-07-26T12:27:47.439Z,98983.77
2022-07-26T12:30:49.219Z,98983.91
2022-07-26T12:33:51.191Z,98982.32
2022-07-26T12:36:53.097Z,98980.61
2022-07-26T12:40:07.968Z,98986.30
2022-07-26T12:43:10.179Z,98984.79
2022-07-26T12:46:12.203Z,98988.14
2022-07-26T12:49:14.005Z,98987.05
2022-07-26T12:52:17.623Z,98990.00
2022-07-26T12:55:21.673Z,98991.29
2022-07-26T12:58:23.446Z,98991.23
2022-07-26T13:01:25.205Z,98991.30
2022-07-26T13:04:27.112Z,98989.24
2022-07-26T13:07:28.934Z,98992.58
2022-07-26T13:10:33.656Z,98991.03
2022-07-26T13:13:36.061Z,98996.06
2022-07-26T13:16:37.899Z,98993.04
2022-07-26T13:19:39.817Z,98994.13
2022-07-26T13:22:42.351Z,98997.48
2022-07-26T13:25:44.096Z,98998.03
2022-07-26T13:28:49.639Z,98999.77
2022-07-26T13:31:52.133Z,99005.33
2022-07-26T13:34:53.834Z,99008.20
2022-07-26T13:37:55.512Z,99008.91
2022-07-26T13:40:57.322Z,99018.97
2022-07-26T13:44:00.908Z,99028.65
2022-07-26T13:47:02.676Z,99033.52
2022-07-26T13:50:04.707Z,99039.86
2022-07-26T13:53:08.503Z,99040.02
2022-07-26T13:56:10.471Z,99041.71
2022-07-26T13:59:13.018Z,99046.17
2022-07-26T14:02:15.312Z,99049.41
2022-07-26T14:05:17.544Z,99055.12
2022-07-26T14:08:19.964Z,99057.55
2022-07-26T14:11:21.979Z,99068.70
2022-07-26T14:14:23.786Z,99077.14
2022-07-26T14:17:25.481Z,99084.98
2022-07-26T14:20:27.611Z,99094.06
2022-07-26T14:23:29.854Z,99091.45
2022-07-26T14:26:31.977Z,99095.38
2022-07-26T14:29:34.009Z,99105.62
2022-07-26T14:32:35.723Z,99105.55
2022-07-26T14:35:37.600Z,99105.30
2022-07-26T14:38:41.337Z,99105.84
2022-07-26T14:41:43.203Z,99109.29
2022-07-26T14:44:45.158Z,99116.08
2022-07-26T14:47:46.981Z,99118.59
2022-07-26T14:51:08.686Z,99125.36
2022-07-26T14:54:13.186Z,99128.80
2022-07-26T14:57:15.511Z,99127.64
2022-07-26T15:00:18.788Z,99119.42
2022-07-26T15:03:20.834Z,99110.83
2022-07-26T15:06:22.830Z,99109.94
2022-07-26T15:09:24.675Z,99110.15
2022-07-26T15:12:26.592Z,99111.03
2022-07-26T15:15:29.263Z,99117.04
2022-07-26T15:18:31.038Z,99115.62
2022-07-26T15:21:32.901Z,99119.66
2022-07-26T15:24:39.571Z,99123.62
2022-07-26T15:27:42.158Z,99119.38
2022-07-26T15:30:44.122Z,99115.45
2022-07-26T15:33:46.722Z,99115.86
2022-07-26T15:36:48.450Z,99117.33
2022-07-26T15:39:51.853Z,99118.73
2022-07-26T15:42:54.017Z,99122.23
2022-07-26T15:45:57.717Z,99125.42
2022-07-26T15:49:01.839Z,99126.52
2022-07-26T15:52:04.714Z,99128.16
2022-07-26T15:55:07.986Z,99131.02
2022-07-26T15:58:09.988Z,99128.36
2022-07-26T16:01:11.888Z,99131.63
2022-07-26T16:04:14.854Z,99126.29
2022-07-26T16:07:16.951Z,99134.50
2022-07-26T16:10:18.813Z,99133.58
2022-07-26T16:13:20.498Z,99138.61
2022-07-26T16:16:22.644Z,99141.08
2022-07-26T16:19:24.453Z,99145.59
2022-07-26T16:22:26.302Z,99141.36
2022-07-26T16:25:28.030Z,99147.33
2022-07-26T16:28:29.826Z,99146.29
2022-07-26T16:31:31.693Z,99147.35
2022-07-26T16:34:34.859Z,99143.23
2022-07-26T16:37:36.663Z,99146.15
2022-07-26T16:40:38.341Z,99147.79
2022-07-26T16:43:40.516Z,99147.21
2022-07-26T16:46:42.387Z,99150.16
2022-07-26T16:49:46.285Z,99149.21
2022-07-26T16:52:48.082Z,99146.74
2022-07-26T16:55:51.968Z,99144.11
2022-07-26T16:58:53.734Z,99137.95
2022-07-26T17:01:55.627Z,99135.92
2022-07-26T17:05:01.363Z,99138.27
2022-07-26T17:08:03.152Z,99137.92
2022-07-26T17:11:04.998Z,99141.42
2022-07-26T17:14:07.081Z,99142.12
2022-07-26T17:17:09.103Z,99144.92
2022-07-26T17:20:11.427Z,99139.92
2022-07-26T17:23:13.244Z,99134.02
2022-07-26T17:26:19.014Z,99128.89
2022-07-26T17:29:21.003Z,99130.00
2022-07-26T17:32:22.758Z,99130.46
2022-07-26T17:35:26.697Z,99129.75
2022-07-26T17:38:28.551Z,99130.05
2022-07-26T17:41:32.975Z,99134.27
2022-07-26T17:44:35.374Z,99141.59
2022-07-26T17:47:37.327Z,99143.11
2022-07-26T17:50:39.163Z,99144.55
2022-07-26T17:53:43.406Z,99142.39
2022-07-26T17:56:46.005Z,99145.39
2022-07-26T17:59:47.781Z,99144.24
2022-07-26T18:02:49.796Z,99146.20
2022-07-26T18:05:51.942Z,99144.58
2022-07-26T18:08:54.055Z,99146.44
2022-07-26T18:11:55.745Z,99146.63
2022-07-26T18:14:57.687Z,99149.52
2022-07-26T18:17:59.737Z,99159.03
2022-07-26T18:21:01.550Z,99153.69
2022-07-26T18:24:16.261Z,99153.02
2022-07-26T18:27:19.708Z,99160.59
2022-07-26T18:30:21.801Z,99161.20
2022-07-26T18:33:23.626Z,99166.36
2022-07-26T18:36:28.334Z,99164.42
2022-07-26T18:39:32.935Z,99166.52
2022-07-26T18:42:36.327Z,99172.66
2022-07-26T18:45:38.040Z,99180.49
2022-07-26T18:48:41.786Z,99175.98
2022-07-26T18:51:44.742Z,99173.02
2022-07-26T18:54:50.550Z,99174.23
2022-07-26T18:57:53.857Z,99171.61
2022-07-26T19:00:55.711Z,99177.38
2022-07-26T19:03:57.522Z,99181.17
2022-07-26T19:06:59.246Z,99183.39
2022-07-26T19:10:01.036Z,99185.84
2022-07-26T19:13:02.823Z,99179.65
2022-07-26T19:16:04.799Z,99176.39
2022-07-26T19:19:06.816Z,99182.12
2022-07-26T19:22:08.760Z,99178.45
2022-07-26T19:25:13.623Z,99177.47
2022-07-26T19:28:15.365Z,99175.48
2022-07-26T19:31:17.193Z,99172.65
2022-07-26T19:34:19.441Z,99170.63
2022-07-26T19:37:21.628Z,99167.45
2022-07-26T19:40:23.872Z,99166.02
2022-07-26T19:43:25.652Z,99164.21
2022-07-26T19:46:27.591Z,99161.59
2022-07-26T19:49:29.687Z,99166.46
2022-07-26T19:52:31.598Z,99166.30
2022-07-26T19:55:33.515Z,99165.14
2022-07-26T19:58:35.287Z,99160.70
2022-07-26T20:01:37.341Z,99157.59
2022-07-26T20:04:42.959Z,99156.10
2022-07-26T20:07:49.139Z,99155.89
2022-07-26T20:10:51.675Z,99163.87
2022-07-26T20:13:53.995Z,99161.45
2022-07-26T20:16:58.019Z,99161.95
2022-07-26T20:19:59.744Z,99163.40
2022-07-26T20:23:03.555Z,99163.14
2022-07-26T20:26:05.298Z,99164.26
2022-07-26T20:29:07.649Z,99172.02
2022-07-26T20:32:09.489Z,99172.05
2022-07-26T20:35:11.548Z,99173.77
2022-07-26T20:38:13.392Z,99168.96
2022-07-26T20:41:15.267Z,99174.98
2022-07-26T20:44:19.759Z,99174.89
2022-07-26T20:47:24.824Z,99181.77
2022-07-26T20:50:26.653Z,99182.29
2022-07-26T20:53:28.346Z,99181.44
2022-07-26T20:56:32.455Z,99181.50
2022-07-26T20:59:35.253Z,99184.20
2022-07-26T21:02:37.192Z,99181.58
2022-07-26T21:05:39.019Z,99184.13
2022-07-26T21:08:40.734Z,99182.77
2022-07-26T21:11:42.433Z,99186.01
2022-07-26T21:14:44.285Z,99184.61
2022-07-26T21:17:46.053Z,99185.02
2022-07-26T21:20:48.099Z,99190.67
2022-07-26T21:23:49.888Z,99191.95
2022-07-26T21:26:51.815Z,99191.09
2022-07-26T21:29:54.419Z,99189.02
2022-07-26T21:32:56.315Z,99192.86
2022-07-26T21:35:58.187Z,99193.67
2022-07-26T21:38:59.986Z,99195.21
2022-07-26T21:42:02.610Z,99194.56
2022-07-26T21:45:05.457Z,99194.20
2022-07-26T21:48:07.279Z,99196.41
2022-07-26T21:51:08.998Z,99198.05
2022-07-26T21:54:10.800Z,99198.44
2022-07-26T21:57:12.651Z,99202.91
2022-07-26T22:00:15.900Z,99203.44
2022-07-26T22:03:29.929Z,99202.44
2022-07-26T22:06:34.346Z,99206.91
2022-07-26T22:09:36.219Z,99209.32
2022-07-26T22:12:37.953Z,99211.23
2022-07-26T22:15:39.775Z,99209.17
2022-07-26T22:18:41.595Z,99209.06
2022-07-26T22:21:43.358Z,99207.25
2022-07-26T22:24:45.126Z,99211.59
2022-07-26T22:27:46.827Z,99212.16
2022-07-26T22:30:48.669Z,99214.58
2022-07-26T22:33:50.622Z,99216.39
2022-07-26T22:36:52.598Z,99217.56
2022-07-26T22:39:54.387Z,99215.08
2022-07-26T22:42:58.640Z,99211.73
2022-07-26T22:46:00.438Z,99210.98
2022-07-26T22:49:02.367Z,99209.18
2022-07-26T22:52:04.315Z,99207.55
2022-07-26T22:55:06.586Z,99207.16
2022-07-26T22:58:08.560Z,99208.60
2022-07-26T23:01:10.298Z,99208.59
2022-07-26T23:04:12.143Z,99208.49
2022-07-26T23:07:14.726Z,99207.02
2022-07-26T23:10:17.450Z,99203.77
2022-07-26T23:13:19.284Z,99203.06
2022-07-26T23:16:21.032Z,99205.46
2022-07-26T23:19:25.294Z,99205.14
2022-07-26T23:22:27.375Z,99202.32
2022-07-26T23:25:29.046Z,99204.36
2022-07-26T23:28:35.739Z,99206.30
2022-07-26T23:31:39.958Z,99203.88
2022-07-26T23:34:41.651Z,99203.56
2022-07-26T23:37:43.447Z,99208.04
2022-07-26T23:40:45.191Z,99208.84
2022-07-26T23:43:47.140Z,99209.25
2022-07-26T23:46:48.897Z,99213.50
2022-07-26T23:49:50.621Z,99208.33
2022-07-26T23:52:52.346Z,99207.99
2022-07-26T23:55:55.793Z,99210.38
2022-07-26T23:58:57.586Z,99210.73
